Flight Track Log - Related Links

Times and Time Zones

All times are in EDT time to prevent confusion due to time zone crossing. See the EJA929 flight status page for this flight to view local times or setup timezone preferences in your user account.

Time Position Orientation Groundspeed Altitude Reporting Facility
EDT Latitude Longitude Course Direction KTS MPH feet Rate Location/Type
Sat 12:13:56 PM 39.2914 -106.9447 244° Southwest 253 291 12,500  Level Denver Center
Sat 12:14:58 PM 39.3064 -107.0364 282° West 256 295 16,500 3,408 Climbing Denver Center
Sat 12:16:01 PM 39.3369 -107.1192 296° West 252 290 19,600 2,064 Climbing Denver Center
Sat 12:17:03 PM 39.3236 -107.2492 262° West 306 352 20,800 794 Climbing Denver Center
Sat 12:18:00 PM 38.8625 -107.8439 245° Southwest  Level Estimated
Sat 12:18:17 PM 39.3039 -107.3714 258° West 356 410 21,400  Level Denver Center
Sat 12:19:00 PM 38.8106 -107.9825 244° Southwest  Level Estimated
Sat 12:19:19 PM 39.2736 -107.5517 258° West 400 460 22,300  Level Denver Center
Sat 12:20:21 PM 39.2539 -107.6647 257° West 404 465 23,300 1,161 Climbing Denver Center
Sat 12:21:23 PM 39.2231 -107.8517 258° West 415 478 24,700 1,258 Climbing Denver Center
Sat 12:22:25 PM 39.1986 -107.9931 257° West 419 482 25,900 1,161 Climbing Denver Center
Sat 12:23:27 PM 39.1711 -108.1594 258° West 422 486 27,100 1,016 Climbing Denver Center
Sat 12:24:29 PM 39.1456 -108.3053 257° West 432 497 28,000 968 Climbing Denver Center
Sat 12:25:31 PM 39.1153 -108.4814 258° West 449 517 29,100 1,016 Climbing Denver Center
Sat 12:26:33 PM 39.0875 -108.6308 257° West 447 514 30,100 960 Climbing Denver Center
Sat 12:27:36 PM 39.0397 -108.7708 246° West 443 510 31,100 1,008 Climbing Denver Center
Sat 12:28:38 PM 38.9803 -108.9367 245° Southwest 452 520 32,200 1,016 Climbing Denver Center
Sat 12:29:40 PM 38.9278 -109.0803 245° Southwest 462 532 33,200 871 Climbing Denver Center
Sat 12:30:42 PM 38.8661 -109.2472 245° Southwest 462 532 34,000 823 Climbing Denver Center
Sat 12:31:44 PM 38.8136 -109.3936 245° Southwest 470 541 34,900 1,500 Climbing Denver Center
Sat 12:32:46 PM 38.7542 -109.5542 245° Southwest 445 512 37,100 2,032 Climbing Denver Center
Sat 12:33:48 PM 38.7053 -109.6861 245° Southwest 429 494 39,100 1,403 Climbing Denver Center
Sat 12:34:50 PM 38.6475 -109.8408 244° Southwest 430 495 40,000 435 Climbing Denver Center
Sat 12:35:52 PM 38.5956 -109.9775 244° Southwest 443 510 40,000  Level Denver Center
Sat 12:36:54 PM 38.5336 -110.1450 245° Southwest 464 534 40,000  Level Denver Center
Sat 12:37:56 PM 38.4792 -110.2864 244° Southwest 465 535 40,000  Level Denver Center
Sat 12:38:53 PM 38.4261 -110.4300 245° Southwest 466 536 40,000  Level Salt Lake Center
Sat 12:39:55 PM 38.3722 -110.5725 244° Southwest 467 537 40,000  Level Salt Lake Center
Sat 12:40:57 PM 38.3081 -110.7392 244° Southwest 468 539 40,000  Level Salt Lake Center
Sat 12:41:59 PM 38.2528 -110.8814 244° Southwest 468 539 40,000  Level Salt Lake Center
Sat 12:43:01 PM 38.1917 -111.0428 244° Southwest 468 539 40,000  Level Salt Lake Center
Sat 12:44:03 PM 38.1325 -111.1906 243° Southwest 469 540 40,000  Level Salt Lake Center
Sat 12:45:05 PM 38.0736 -111.3403 243° Southwest 474 545 40,000  Level Salt Lake Center
Sat 12:46:07 PM 38.0156 -111.4892 244° Southwest 473 544 40,000  Level Salt Lake Center
Sat 12:47:09 PM 37.9453 -111.6686 244° Southwest 474 545 40,000  Level Salt Lake Center
Sat 12:48:11 PM 37.8844 -111.8194 243° Southwest 479 551 40,000  Level Salt Lake Center
Sat 12:49:13 PM 37.8250 -111.9700 243° Southwest 480 552 40,000  Level Salt Lake Center
Sat 12:50:15 PM 37.7647 -112.1194 243° Southwest 478 550 40,000  Level Salt Lake Center
Sat 12:51:17 PM 37.7042 -112.2700 243° Southwest 480 552 40,000  Level Salt Lake Center
Sat 12:52:19 PM 37.6261 -112.4067 234° Southwest 478 550 40,000  Level Salt Lake Center
Sat 12:53:21 PM 37.5406 -112.5367 230° Southwest 479 551 40,000  Level Salt Lake Center
Sat 12:54:23 PM 37.4542 -112.6678 230° Southwest 478 550 40,000  Level Salt Lake Center
Sat 12:55:25 PM 37.3489 -112.8286 231° Southwest 486 559 40,000  Level Salt Lake Center
Sat 12:56:14 PM 37.2808 -112.9350 231° Southwest 486 559 40,000  Level Los Angeles Center
Sat 12:57:28 PM 37.1964 -113.0658 231° Southwest 481 554 40,000  Level Los Angeles Center
Sat 12:58:30 PM 37.0950 -113.2208 231° Southwest 479 551 40,000  Level Los Angeles Center
Sat 12:59:32 PM 37.0100 -113.3503 231° Southwest 480 552 40,000  Level Los Angeles Center
Sat 01:00:34 PM 36.9253 -113.4800 231° Southwest 481 554 40,000  Level Los Angeles Center
Sat 01:01:36 PM 36.8406 -113.6097 231° Southwest 481 554 40,000  Level Los Angeles Center
Sat 01:02:38 PM 36.7372 -113.7642 230° Southwest 484 557 40,000  Level Los Angeles Center
Sat 01:03:41 PM 36.6519 -113.8942 231° Southwest 485 558 40,000  Level Los Angeles Center
Sat 01:04:43 PM 36.5642 -114.0233 230° Southwest 489 563 40,000  Level Los Angeles Center
Sat 01:05:45 PM 36.4722 -114.1617 230° Southwest 487 560 40,000  Level Los Angeles Center
Sat 01:06:47 PM 36.3861 -114.2906 230° Southwest 485 558 40,000  Level Los Angeles Center
Sat 01:08:01 PM 36.2975 -114.4194 230° Southwest 488 562 40,000  Level Los Angeles Center
Sat 01:09:03 PM 36.1919 -114.5758 230° Southwest 491 565 40,000  Level Los Angeles Center
Sat 01:10:05 PM 36.1031 -114.7042 229° Southwest 489 563 40,000  Level Los Angeles Center
Sat 01:11:07 PM 36.0139 -114.8339 230° Southwest 490 564 40,000  Level Los Angeles Center
Sat 01:12:10 PM 35.9050 -114.9836 228° Southwest 487 560 40,000 -192 Level Los Angeles Center
Sat 01:13:12 PM 35.8128 -115.1086 228° Southwest 489 563 39,600 -1,161 Descending Los Angeles Center
Sat 01:14:14 PM 35.7217 -115.2344 228° Southwest 490 564 37,600 -1,742 Descending Los Angeles Center
Sat 01:15:16 PM 35.6294 -115.3597 228° Southwest 491 565 36,000 -774 Descending Los Angeles Center
Sat 01:16:18 PM 35.5372 -115.4839 228° Southwest 490 564 36,000  Level Los Angeles Center
Sat 01:17:20 PM 35.4381 -115.6161 227° Southwest 492 566 36,000  Level Los Angeles Center
Sat 01:18:22 PM 35.3458 -115.7389 227° Southwest 490 564 36,000  Level Los Angeles Center
Sat 01:19:24 PM 35.2514 -115.8636 227° Southwest 497 572 36,000 -1,113 Level Los Angeles Center
Sat 01:20:26 PM 35.1586 -115.9867 227° Southwest 494 568 33,700 -2,371 Descending Los Angeles Center
Sat 01:21:28 PM 35.0658 -116.1092 227° Southwest 492 566 31,100 -2,806 Descending Los Angeles Center
Sat 01:22:30 PM 34.9550 -116.2564 227° Southwest 491 565 27,900 -2,806 Descending Los Angeles Center
Sat 01:23:32 PM 34.8614 -116.3783 227° Southwest 492 566 25,300 -1,968 Descending Los Angeles Center
Sat 01:24:35 PM 34.7947 -116.5103 238° Southwest 468 539 23,800 -1,536 Descending Los Angeles Center
Sat 01:25:37 PM 34.7944 -116.6650 270° West 461 531 22,100 -1,742 Descending Los Angeles Center
Sat 01:26:39 PM 34.8164 -116.8217 280° West 472 543 20,200 -1,016 Descending Los Angeles Center
Sat 01:27:41 PM 34.8431 -116.9769 282° West 470 541 20,000 -97 Descending Los Angeles Center
Sat 01:28:43 PM 34.8311 -117.1569 265° West 449 517 20,000 -629 Level Los Angeles Center
Sat 01:29:45 PM 34.7981 -117.2975 254° West 431 496 18,700 -1,258 Descending Los Angeles Center
Sat 01:30:47 PM 34.7617 -117.4406 253° West 437 503 17,400 -1,161 Descending Los Angeles Center
Sat 01:31:49 PM 34.7264 -117.5811 253° West 432 497 16,300 -1,015 Descending Los Angeles Center
Sat 01:33:03 PM 34.6900 -117.7203 252° West 431 496 15,100 -1,095 Descending Los Angeles Center
Sat 01:34:06 PM 34.6508 -117.8872 254° West 425 489 13,800 -1,008 Descending Los Angeles Center
Sat 01:35:08 PM 34.6358 -118.0258 263° West 415 478 13,000 -1,065 Descending Los Angeles Center
Sat 01:36:10 PM 34.6108 -118.1639 258° West 374 430 11,600 -1,597 Descending Los Angeles Center
Sat 01:37:12 PM 34.5886 -118.2603 254° West 302 348 9,700 -1,742 Descending Los Angeles Center
Sat 01:38:14 PM 34.5636 -118.3683 254° West 279 321 8,000 -823 Descending Los Angeles Center
Sat 01:39:16 PM 34.5439 -118.4578 255° West 277 319 8,000 -97 Level Los Angeles Center
Sat 01:40:18 PM 34.5147 -118.5431 247° West 285 328 7,800 -919 Descending Los Angeles Center
Sat 01:41:20 PM 34.4475 -118.5803 205° Southwest 268 308 6,100 -1,355 Descending Los Angeles Center
Sat 01:42:22 PM 34.3778 -118.6003 193° South 264 304 5,000 -528 Descending Los Angeles Center
Sat 01:43:25 PM 34.3031 -118.5903 174° South 266 306 5,000 -144 Level Los Angeles Center
Sat 01:44:27 PM 34.2122 -118.5744 172° South 274 315 4,700 -1,113 Descending Los Angeles Center
Sat 01:45:29 PM 34.2006 -118.4961 100° East 274 315 2,700 -1,452 Descending Los Angeles Center
Sat 01:46:31 PM 34.1983 -118.4283 92° East 220 253 1,700 -823 Descending Los Angeles Center
Sat 01:47:33 PM 34.1992 -118.3847 89° East 166 191 1,000 -677 Descending Los Angeles Center
Sat 01:49:00 PM 34.2000 -118.3500 90° East  Level FlightAware Approximate
Sat 01:56:00 PM 34.2007 -118.3587 90° East  Level Estimated

Login

Don't have an account? Register now (free) for customized features, flight alerts, and more!